Time;durP1;ratioP1;P1;durP2;ratioP2;P2;SDS_P1;SDS_P2;PMS_P1;PMS_P2;Temp;Humidity;BMP_temperature;BMP_pressure;BME280_temperature;BME280_humidity;BME280_pressure;Samples;Min_cycle;Max_cycle;Signal;HPM_P1;HPM_P2
2023/08/29 00:01:24;;;;;;;10.63;5.60;;;17.10;99.90;;;;;;7310590;19;20192;-80
2023/08/29 00:03:51;;;;;;;9.17;5.87;;;17.10;99.90;;;;;;7290352;19;20217;-80
2023/08/29 00:06:17;;;;;;;11.60;5.67;;;17.10;99.90;;;;;;7289385;19;20214;-80
2023/08/29 00:08:42;;;;;;;11.73;6.70;;;16.90;99.90;;;;;;7287264;19;20987;-79
2023/08/29 00:11:08;;;;;;;11.37;7.10;;;16.80;99.90;;;;;;7290690;19;20204;-80
2023/08/29 00:13:34;;;;;;;11.03;6.70;;;16.70;99.90;;;;;;7287945;19;20195;-80
2023/08/29 00:16:00;;;;;;;13.00;6.00;;;16.60;99.90;;;;;;7287474;19;20193;-78
2023/08/29 00:18:26;;;;;;;12.33;5.80;;;16.50;99.90;;;;;;7297073;19;20179;-78
2023/08/29 00:20:53;;;;;;;12.63;7.10;;;16.40;99.90;;;;;;7309193;19;20192;-79
2023/08/29 00:23:19;;;;;;;13.13;7.30;;;16.40;99.90;;;;;;7288357;19;20609;-79
2023/08/29 00:25:46;;;;;;;10.77;6.50;;;16.50;99.90;;;;;;7289041;19;20206;-80
2023/08/29 00:28:14;;;;;;;11.83;6.60;;;16.40;99.90;;;;;;7288333;19;20193;-80
2023/08/29 00:30:40;;;;;;;11.43;6.60;;;16.30;99.90;;;;;;7289980;19;20192;-79
2023/08/29 00:33:06;;;;;;;10.60;6.83;;;16.20;99.90;;;;;;7288514;19;20196;-79
2023/08/29 00:35:32;;;;;;;12.23;7.03;;;16.30;99.90;;;;;;7287997;19;20196;-79
2023/08/29 00:37:58;;;;;;;12.17;6.93;;;16.30;99.90;;;;;;7288426;19;20200;-79
2023/08/29 00:40:31;;;;;;;11.07;6.43;;;16.30;99.90;;;;;;7309214;19;20188;-80
2023/08/29 00:42:58;;;;;;;11.27;6.37;;;16.30;99.90;;;;;;7265466;19;20200;-79
2023/08/29 00:45:24;;;;;;;11.60;6.63;;;16.40;99.90;;;;;;7308677;19;20734;-81
2023/08/29 00:47:51;;;;;;;8.97;6.00;;;16.40;99.90;;;;;;7287948;19;20335;-79
2023/08/29 00:50:17;;;;;;;11.33;6.30;;;16.40;99.90;;;;;;7287232;19;20672;-80
2023/08/29 00:52:45;;;;;;;12.10;6.43;;;16.40;99.90;;;;;;7287396;19;20269;-79
2023/08/29 00:55:11;;;;;;;13.17;6.70;;;16.40;99.90;;;;;;7287555;19;20627;-79
2023/08/29 00:57:37;;;;;;;12.97;7.60;;;16.40;99.90;;;;;;7285762;19;20193;-79
2023/08/29 01:00:03;;;;;;;11.73;7.27;;;16.40;99.90;;;;;;7287132;19;20200;-79
2023/08/29 01:02:29;;;;;;;14.00;7.73;;;16.30;99.90;;;;;;7287529;19;20227;-79
2023/08/29 01:04:55;;;;;;;14.90;7.90;;;16.30;99.90;;;;;;7305052;19;20825;-79
2023/08/29 01:07:21;;;;;;;12.23;7.17;;;16.20;99.90;;;;;;7297291;19;20201;-79
2023/08/29 01:09:46;;;;;;;8.20;5.60;;;16.20;99.90;;;;;;7284761;19;20194;-80
2023/08/29 01:12:17;;;;;;;11.93;6.47;;;16.10;99.90;;;;;;7287099;19;20192;-79
2023/08/29 01:15:03;;;;;;;13.60;7.93;;;15.90;99.90;;;;;;7287310;19;20191;-80
2023/08/29 01:17:35;;;;;;;15.23;8.17;;;15.90;99.90;;;;;;7266535;19;20212;-79
2023/08/29 01:20:05;;;;;;;13.03;8.20;;;15.90;99.90;;;;;;7286559;19;20668;-79
2023/08/29 01:22:36;;;;;;;17.00;8.67;;;16.00;99.90;;;;;;7287121;19;20191;-80
2023/08/29 01:25:29;;;;;;;17.60;8.73;;;16.00;99.90;;;;;;7287375;19;20675;-78
2023/08/29 01:27:55;;;;;;;14.97;9.37;;;16.00;99.90;;;;;;7282828;19;20202;-77
2023/08/29 01:30:22;;;;;;;14.77;9.73;;;16.00;99.90;;;;;;7302695;19;20183;-80
2023/08/29 01:32:48;;;;;;;15.47;10.13;;;16.00;99.90;;;;;;7285949;19;20203;-79
2023/08/29 01:35:15;;;;;;;15.90;9.60;;;16.10;99.90;;;;;;7285447;19;20364;-79
2023/08/29 01:37:41;;;;;;;14.80;9.60;;;16.10;99.90;;;;;;7285990;19;20697;-79
2023/08/29 01:40:07;;;;;;;18.60;9.80;;;16.10;99.90;;;;;;7286474;19;20200;-80
2023/08/29 01:42:36;;;;;;;15.03;9.27;;;16.10;99.90;;;;;;7284726;19;20543;-79
2023/08/29 01:45:03;;;;;;;14.07;9.33;;;16.10;99.90;;;;;;7285918;19;20180;-79
2023/08/29 01:47:29;;;;;;;13.70;9.57;;;16.10;99.90;;;;;;7285595;19;20192;-78
2023/08/29 01:49:55;;;;;;;16.13;9.33;;;16.10;99.90;;;;;;7302382;19;20202;-77
2023/08/29 01:52:21;;;;;;;13.60;9.47;;;16.10;99.90;;;;;;7301614;19;20200;-80
2023/08/29 01:54:47;;;;;;;17.00;9.47;;;16.10;99.90;;;;;;7282643;19;20189;-79
2023/08/29 01:57:15;;;;;;;15.30;9.13;;;16.10;99.90;;;;;;7285345;19;20199;-79
2023/08/29 01:59:43;;;;;;;16.37;9.93;;;16.10;99.90;;;;;;7285671;19;20285;-80
2023/08/29 02:02:09;;;;;;;17.23;9.87;;;16.10;99.90;;;;;;7285830;19;21016;-79
2023/08/29 02:04:35;;;;;;;15.20;9.60;;;16.20;99.90;;;;;;7285982;19;20216;-79
2023/08/29 02:07:01;;;;;;;14.53;8.77;;;16.20;99.90;;;;;;7286004;19;20227;-79
2023/08/29 02:09:26;;;;;;;13.70;9.80;;;16.30;99.90;;;;;;7286100;19;20223;-78
2023/08/29 02:11:52;;;;;;;16.07;9.97;;;16.30;99.90;;;;;;7308572;19;20195;-80
2023/08/29 02:14:18;;;;;;;12.90;9.00;;;16.30;99.90;;;;;;7284500;19;20202;-80
2023/08/29 02:16:44;;;;;;;12.23;8.97;;;16.40;99.90;;;;;;7286663;19;21284;-80
2023/08/29 02:19:14;;;;;;;16.37;9.47;;;16.50;99.90;;;;;;7284131;19;20680;-80
2023/08/29 02:21:42;;;;;;;14.40;9.53;;;16.50;99.90;;;;;;7285202;19;20197;-80
2023/08/29 02:24:08;;;;;;;18.20;10.03;;;16.50;99.90;;;;;;7285720;19;20187;-80
2023/08/29 02:26:34;;;;;;;14.00;9.80;;;16.50;99.90;;;;;;7284818;19;20674;-79
2023/08/29 02:29:00;;;;;;;16.07;10.07;;;16.50;99.90;;;;;;7284225;19;20196;-80
2023/08/29 02:31:25;;;;;;;12.97;8.97;;;16.40;99.90;;;;;;7299716;19;20239;-80
2023/08/29 02:33:53;;;;;;;15.53;9.50;;;16.40;99.90;;;;;;7301545;19;20191;-80
2023/08/29 02:36:19;;;;;;;15.43;10.17;;;16.30;99.90;;;;;;7286006;19;20254;-80
2023/08/29 02:38:45;;;;;;;15.93;10.50;;;16.30;99.90;;;;;;7285274;19;20209;-80
2023/08/29 02:41:12;;;;;;;16.33;10.33;;;16.20;99.90;;;;;;7285232;19;20202;-79
2023/08/29 02:43:38;;;;;;;17.67;10.50;;;16.20;99.90;;;;;;7285228;19;20252;-79
2023/08/29 02:46:04;;;;;;;14.13;10.00;;;16.20;99.90;;;;;;7284490;19;20189;-80
2023/08/29 02:48:32;;;;;;;16.30;10.87;;;16.10;99.90;;;;;;7282192;19;20187;-80
2023/08/29 02:50:57;;;;;;;14.13;9.77;;;16.20;99.90;;;;;;7284226;19;20193;-79
2023/08/29 02:53:23;;;;;;;13.60;9.50;;;16.10;99.90;;;;;;7306434;19;20511;-79
2023/08/29 02:55:51;;;;;;;13.90;9.83;;;15.70;99.90;;;;;;7282923;19;20651;-80
2023/08/29 02:58:16;;;;;;;13.67;9.50;;;15.70;99.90;;;;;;7285622;19;20181;-79
2023/08/29 03:00:42;;;;;;;16.20;9.43;;;15.70;99.90;;;;;;7283142;19;20206;-79
2023/08/29 03:03:08;;;;;;;13.93;9.20;;;15.70;99.90;;;;;;7282218;19;20195;-79
2023/08/29 03:05:34;;;;;;;16.33;10.07;;;15.70;99.90;;;;;;7283309;19;20187;-79
2023/08/29 03:08:03;;;;;;;15.97;10.70;;;15.80;99.90;;;;;;7282026;19;20195;-78
2023/08/29 03:10:30;;;;;;;17.13;10.90;;;15.70;99.90;;;;;;7281499;19;20197;-79
2023/08/29 03:12:56;;;;;;;18.40;12.67;;;15.80;99.90;;;;;;7288746;19;20205;-78
2023/08/29 03:15:22;;;;;;;18.37;12.10;;;15.80;99.90;;;;;;7305186;19;20184;-80
2023/08/29 03:17:50;;;;;;;20.27;11.80;;;15.80;99.90;;;;;;7284753;19;20196;-80
2023/08/29 03:20:19;;;;;;;17.37;11.73;;;15.90;99.90;;;;;;7281748;19;20207;-79
2023/08/29 03:22:44;;;;;;;17.50;10.77;;;15.90;99.90;;;;;;7288776;19;20191;-80
2023/08/29 03:25:11;;;;;;;19.70;12.10;;;15.80;99.90;;;;;;7290358;19;20218;-80
2023/08/29 03:27:37;;;;;;;23.23;12.73;;;15.80;99.90;;;;;;7289738;19;20179;-79
2023/08/29 03:30:03;;;;;;;17.47;12.00;;;15.70;99.90;;;;;;7290060;19;20256;-79
2023/08/29 03:32:29;;;;;;;23.73;14.70;;;15.70;99.90;;;;;;7289362;19;20199;-79
2023/08/29 03:34:55;;;;;;;22.93;14.57;;;15.70;99.90;;;;;;7306373;19;20201;-78
2023/08/29 03:37:21;;;;;;;22.27;15.00;;;15.80;99.90;;;;;;7300253;19;20190;-79
2023/08/29 03:39:47;;;;;;;24.37;15.33;;;15.80;99.90;;;;;;7289217;19;20199;-80
2023/08/29 03:42:12;;;;;;;21.70;14.77;;;15.90;99.90;;;;;;7290103;19;20625;-80
2023/08/29 03:44:38;;;;;;;21.57;13.23;;;15.80;99.90;;;;;;7288869;19;20545;-79
2023/08/29 03:47:04;;;;;;;18.03;12.33;;;15.70;99.90;;;;;;7289340;19;20210;-79
2023/08/29 03:49:30;;;;;;;19.57;12.43;;;15.70;99.90;;;;;;7288125;19;20212;-79
2023/08/29 03:51:56;;;;;;;19.13;12.67;;;15.50;99.90;;;;;;7303873;19;20212;-79
2023/08/29 03:54:22;;;;;;;18.60;12.43;;;15.50;99.90;;;;;;7309450;19;20189;-80
2023/08/29 03:56:48;;;;;;;23.13;12.90;;;15.40;99.90;;;;;;7289413;19;20192;-79
2023/08/29 03:59:15;;;;;;;20.03;13.20;;;15.40;99.90;;;;;;7288027;19;20205;-80
2023/08/29 04:01:41;;;;;;;21.10;12.80;;;15.30;99.90;;;;;;7288145;19;20207;-79
2023/08/29 04:04:07;;;;;;;19.37;11.77;;;15.30;99.90;;;;;;7289153;19;20213;-79
2023/08/29 04:06:35;;;;;;;16.17;11.10;;;15.30;99.90;;;;;;7287984;19;20205;-79
2023/08/29 04:09:03;;;;;;;20.93;13.20;;;15.30;99.90;;;;;;7288185;19;20200;-77
2023/08/29 04:11:29;;;;;;;23.43;13.77;;;15.30;99.90;;;;;;7288607;19;20183;-79
2023/08/29 04:13:56;;;;;;;21.07;14.07;;;15.30;99.90;;;;;;7306041;19;20529;-77
2023/08/29 04:16:21;;;;;;;18.77;12.60;;;15.30;99.90;;;;;;7305234;19;20188;-79
2023/08/29 04:18:47;;;;;;;17.67;12.40;;;15.40;99.90;;;;;;7289243;19;20314;-79
2023/08/29 04:21:13;;;;;;;19.90;12.93;;;15.40;99.90;;;;;;7287628;19;20204;-80
2023/08/29 04:23:38;;;;;;;21.97;13.43;;;15.40;99.90;;;;;;7285575;19;20190;-80
2023/08/29 04:26:04;;;;;;;19.50;12.57;;;15.30;99.90;;;;;;7289251;19;20198;-79
2023/08/29 04:28:30;;;;;;;14.93;10.83;;;15.30;99.90;;;;;;7287758;19;20285;-79
2023/08/29 04:31:06;;;;;;;16.07;10.37;;;15.30;99.90;;;;;;7304206;19;20184;-79
2023/08/29 04:33:31;;;;;;;15.57;10.80;;;15.30;99.90;;;;;;7284161;19;21057;-80
2023/08/29 04:35:59;;;;;;;18.67;12.23;;;15.30;99.90;;;;;;7286235;19;20191;-79
2023/08/29 04:38:24;;;;;;;20.90;14.83;;;15.40;99.90;;;;;;7310209;19;20187;-80
2023/08/29 04:40:53;;;;;;;19.83;14.33;;;15.40;99.90;;;;;;7286980;19;20195;-78
2023/08/29 04:43:19;;;;;;;23.77;15.13;;;15.40;99.90;;;;;;7287439;19;20702;-78
2023/08/29 04:45:46;;;;;;;21.03;14.40;;;15.50;99.90;;;;;;7288696;19;20213;-79
2023/08/29 04:48:12;;;;;;;25.63;15.23;;;15.50;99.90;;;;;;7287310;19;20191;-79
2023/08/29 04:50:39;;;;;;;23.67;16.90;;;15.60;99.90;;;;;;7287358;19;20187;-80
2023/08/29 04:53:05;;;;;;;28.33;19.53;;;15.70;99.90;;;;;;7286762;19;20209;-79
2023/08/29 04:55:32;;;;;;;34.93;20.40;;;15.70;99.90;;;;;;7286837;19;20210;-79
2023/08/29 04:57:58;;;;;;;32.23;19.50;;;15.80;99.90;;;;;;7288816;19;20645;-78
2023/08/29 05:00:24;;;;;;;32.53;20.47;;;15.80;99.90;;;;;;7308514;19;20190;-79
2023/08/29 05:02:50;;;;;;;28.93;19.77;;;15.70;99.90;;;;;;7285743;19;20198;-79
2023/08/29 05:05:16;;;;;;;26.50;18.27;;;15.80;99.90;;;;;;7288022;19;20218;-79
2023/08/29 05:07:44;;;;;;;27.67;18.17;;;15.80;99.90;;;;;;7288009;19;20548;-79
2023/08/29 05:10:10;;;;;;;24.80;17.87;;;15.80;99.90;;;;;;7287677;19;20188;-79
2023/08/29 05:12:36;;;;;;;26.27;17.90;;;15.80;99.90;;;;;;7287104;19;20683;-79
2023/08/29 05:15:01;;;;;;;24.20;17.33;;;15.80;99.90;;;;;;7285283;19;20226;-80
2023/08/29 05:17:27;;;;;;;27.03;17.50;;;15.90;99.90;;;;;;7288148;19;20594;-78
2023/08/29 05:19:54;;;;;;;26.20;16.70;;;15.90;99.90;;;;;;7309052;19;20202;-80
2023/08/29 05:22:20;;;;;;;23.37;16.50;;;16.00;99.90;;;;;;7286414;19;20248;-80
2023/08/29 05:24:46;;;;;;;24.37;17.00;;;16.00;99.90;;;;;;7286292;19;20182;-79
2023/08/29 05:27:12;;;;;;;25.13;17.00;;;16.10;99.90;;;;;;7286396;19;20189;-79
2023/08/29 05:29:38;;;;;;;23.80;16.70;;;16.10;99.90;;;;;;7287169;19;20199;-79
2023/08/29 05:32:04;;;;;;;24.60;17.07;;;16.10;99.90;;;;;;7283859;19;20213;-79
2023/08/29 05:34:30;;;;;;;25.07;14.67;;;16.20;99.90;;;;;;7284272;19;20184;-79
2023/08/29 05:36:56;;;;;;;24.93;16.03;;;16.10;99.90;;;;;;7299468;19;20199;-79
2023/08/29 05:39:23;;;;;;;24.63;16.97;;;16.20;99.90;;;;;;7303285;19;20199;-79
2023/08/29 05:41:50;;;;;;;27.50;18.17;;;16.30;99.90;;;;;;7284562;19;20552;-80
2023/08/29 05:44:16;;;;;;;29.30;19.00;;;16.30;99.90;;;;;;7283865;19;20201;-80
2023/08/29 05:46:42;;;;;;;27.33;19.30;;;16.40;99.90;;;;;;7285570;19;20765;-80
2023/08/29 05:49:07;;;;;;;27.27;19.03;;;16.40;99.90;;;;;;7285783;19;20226;-79
2023/08/29 05:51:34;;;;;;;26.10;18.53;;;16.50;99.90;;;;;;7286152;19;20190;-80
2023/08/29 05:54:00;;;;;;;30.40;20.07;;;16.40;99.90;;;;;;7286128;19;20238;-78
2023/08/29 05:56:26;;;;;;;27.33;17.83;;;16.50;99.90;;;;;;7301684;19;20194;-79
2023/08/29 05:58:51;;;;;;;23.80;16.53;;;16.60;99.90;;;;;;7298441;19;20189;-79
2023/08/29 06:01:17;;;;;;;22.70;15.63;;;16.60;99.90;;;;;;7285239;19;20189;-80
2023/08/29 06:03:43;;;;;;;24.57;15.77;;;16.70;99.90;;;;;;7285197;19;20264;-80
2023/08/29 06:06:09;;;;;;;21.90;14.80;;;16.80;99.90;;;;;;7285108;19;20206;-79
2023/08/29 06:08:35;;;;;;;27.07;18.30;;;16.90;99.90;;;;;;7284217;19;20189;-79
2023/08/29 06:11:03;;;;;;;25.73;17.30;;;16.90;99.90;;;;;;7284549;19;20193;-79
2023/08/29 06:13:29;;;;;;;22.57;16.03;;;17.00;99.90;;;;;;7284420;19;20267;-78
2023/08/29 06:15:55;;;;;;;20.53;14.87;;;17.10;99.90;;;;;;7303920;19;20197;-81
2023/08/29 06:18:21;;;;;;;26.53;18.07;;;17.20;99.90;;;;;;7284513;19;20220;-81
2023/08/29 06:20:47;;;;;;;23.40;16.87;;;17.20;99.90;;;;;;7282747;19;20220;-80
2023/08/29 06:23:13;;;;;;;26.60;18.07;;;17.30;99.90;;;;;;7283406;19;20223;-81
2023/08/29 06:25:39;;;;;;;22.43;16.00;;;17.40;99.90;;;;;;7278238;19;20269;-80
2023/08/29 06:28:05;;;;;;;26.13;17.03;;;17.60;99.90;;;;;;7281841;19;20193;-82
2023/08/29 06:30:31;;;;;;;25.60;18.50;;;17.80;99.90;;;;;;7282325;19;20192;-80
2023/08/29 06:32:57;;;;;;;29.53;17.70;;;17.90;99.90;;;;;;7284460;19;20189;-79
2023/08/29 06:35:23;;;;;;;24.03;15.97;;;18.10;99.90;;;;;;7302924;19;20181;-80
2023/08/29 06:37:49;;;;;;;24.93;15.57;;;18.30;99.90;;;;;;7284830;19;20205;-80
2023/08/29 06:40:15;;;;;;;22.60;15.70;;;18.50;99.90;;;;;;7282749;19;20200;-80
2023/08/29 06:42:40;;;;;;;20.63;15.27;;;18.70;99.90;;;;;;7283518;19;20687;-80
2023/08/29 06:45:08;;;;;;;21.80;15.90;;;18.90;99.90;;;;;;7282899;19;20188;-81
2023/08/29 06:47:33;;;;;;;21.40;15.13;;;19.20;99.90;;;;;;7282901;19;20195;-81
2023/08/29 06:49:59;;;;;;;20.33;14.50;;;20.00;99.90;;;;;;7284260;19;20190;-79
2023/08/29 06:52:29;;;;;;;19.17;13.90;;;21.20;99.90;;;;;;7304086;19;20577;-80
2023/08/29 06:54:55;;;;;;;21.40;12.93;;;22.70;99.90;;;;;;7281943;19;20195;-80
2023/08/29 06:57:20;;;;;;;17.67;12.37;;;23.50;99.90;;;;;;7289617;19;20184;-81
2023/08/29 06:59:46;;;;;;;17.73;12.37;;;23.40;99.90;;;;;;7289712;19;20664;-81
2023/08/29 07:02:15;;;;;;;16.80;12.23;;;23.10;99.90;;;;;;7287949;19;20213;-80
2023/08/29 07:04:41;;;;;;;18.77;12.87;;;22.90;99.90;;;;;;7289213;19;20200;-80
2023/08/29 07:07:07;;;;;;;17.67;12.90;;;22.80;99.90;;;;;;7288101;19;20209;-80
2023/08/29 07:09:36;;;;;;;18.17;13.17;;;22.60;99.90;;;;;;7287447;19;20221;-79
2023/08/29 07:12:02;;;;;;;19.10;12.17;;;22.40;99.90;;;;;;7286098;19;20275;-80
2023/08/29 07:14:27;;;;;;;17.27;11.97;;;22.30;99.90;;;;;;7290977;19;20196;-79
2023/08/29 07:16:54;;;;;;;16.07;12.50;;;22.10;99.90;;;;;;7311147;19;20192;-80
2023/08/29 07:19:20;;;;;;;20.20;12.57;;;21.90;99.90;;;;;;7289513;19;21036;-80
2023/08/29 07:21:46;;;;;;;15.90;12.13;;;21.90;99.90;;;;;;7289038;19;20253;-80
2023/08/29 07:24:12;;;;;;;17.03;12.67;;;21.90;99.90;;;;;;7288042;19;20195;-80
2023/08/29 07:26:38;;;;;;;16.23;12.60;;;22.00;99.90;;;;;;7289821;19;20185;-80
2023/08/29 07:29:04;;;;;;;14.83;11.23;;;21.90;99.90;;;;;;7288753;19;20699;-80
2023/08/29 07:31:30;;;;;;;20.10;12.63;;;21.60;99.90;;;;;;7289247;19;20188;-81
2023/08/29 07:33:56;;;;;;;13.50;9.97;;;21.50;99.90;;;;;;7307273;19;20196;-80
2023/08/29 07:36:22;;;;;;;15.47;11.67;;;21.40;99.90;;;;;;7301059;19;20196;-81
2023/08/29 07:38:48;;;;;;;16.63;10.87;;;21.30;99.90;;;;;;7290257;19;20192;-80
2023/08/29 07:41:14;;;;;;;15.07;10.87;;;21.30;99.90;;;;;;7286042;19;20197;-80
2023/08/29 07:43:40;;;;;;;17.03;12.20;;;21.20;99.90;;;;;;7288635;19;20198;-80
2023/08/29 07:46:08;;;;;;;18.80;11.97;;;21.20;99.90;;;;;;7288903;19;20189;-80
2023/08/29 07:48:34;;;;;;;13.83;10.80;;;21.10;99.90;;;;;;7286440;19;20187;-79
2023/08/29 07:51:01;;;;;;;19.70;11.97;;;21.00;99.90;;;;;;7288382;19;20345;-81
2023/08/29 07:53:27;;;;;;;15.87;11.90;;;20.90;99.90;;;;;;7294080;19;20195;-81
2023/08/29 07:55:53;;;;;;;17.13;11.97;;;20.70;99.90;;;;;;7309691;19;20192;-80
2023/08/29 07:58:19;;;;;;;19.07;12.43;;;20.70;99.90;;;;;;7288707;19;20210;-81
2023/08/29 08:00:45;;;;;;;15.87;11.93;;;20.70;99.90;;;;;;7283864;19;20199;-82
2023/08/29 08:03:11;;;;;;;18.67;12.37;;;20.70;99.90;;;;;;7287582;19;20199;-81
2023/08/29 08:05:37;;;;;;;19.50;12.50;;;20.60;99.90;;;;;;7288818;19;20211;-81
2023/08/29 08:08:04;;;;;;;19.77;13.07;;;20.60;99.90;;;;;;7287955;19;20196;-80
2023/08/29 08:10:30;;;;;;;16.63;12.90;;;20.50;99.90;;;;;;7282472;19;20301;-81
2023/08/29 08:12:56;;;;;;;16.60;12.47;;;20.60;99.90;;;;;;7301949;19;20717;-80
2023/08/29 08:15:22;;;;;;;15.80;11.60;;;20.70;99.90;;;;;;7299543;19;20207;-80
2023/08/29 08:17:48;;;;;;;16.07;11.87;;;20.80;99.90;;;;;;7286905;19;20187;-79
2023/08/29 08:20:13;;;;;;;16.40;11.40;;;20.90;99.90;;;;;;7285820;19;20244;-80
2023/08/29 08:22:40;;;;;;;16.97;11.13;;;21.00;99.90;;;;;;7286258;19;20287;-81
2023/08/29 08:25:08;;;;;;;14.20;11.60;;;21.10;99.90;;;;;;7288354;19;20188;-79
2023/08/29 08:27:34;;;;;;;15.37;10.67;;;21.30;99.90;;;;;;7286413;19;20227;-81
2023/08/29 08:30:00;;;;;;;13.40;10.90;;;21.50;99.90;;;;;;7285971;19;20289;-79
2023/08/29 08:32:28;;;;;;;15.03;10.27;;;21.50;99.90;;;;;;7299742;19;20187;-80
2023/08/29 08:34:55;;;;;;;14.50;10.00;;;21.80;99.90;;;;;;7308776;19;20183;-80
2023/08/29 08:37:20;;;;;;;16.27;10.80;;;22.00;99.90;;;;;;7289275;19;20292;-80
2023/08/29 08:39:46;;;;;;;14.93;10.07;;;22.10;99.90;;;;;;7285904;19;20205;-81
2023/08/29 08:42:14;;;;;;;15.40;9.63;;;22.30;99.90;;;;;;7283594;19;20181;-80
2023/08/29 08:44:41;;;;;;;14.23;9.83;;;22.50;99.90;;;;;;7283730;19;20211;-80
2023/08/29 08:47:07;;;;;;;13.63;8.87;;;22.50;99.90;;;;;;7283023;19;20187;-80
2023/08/29 08:49:33;;;;;;;15.83;9.23;;;22.60;99.90;;;;;;7282728;19;20177;-81
2023/08/29 08:52:00;;;;;;;12.97;9.43;;;22.70;99.90;;;;;;7279993;19;20241;-80
2023/08/29 08:54:26;;;;;;;14.17;9.70;;;22.80;99.90;;;;;;7304459;19;20198;-80
2023/08/29 08:56:57;;;;;;;12.63;9.47;;;22.80;99.90;;;;;;7294191;19;20204;-80
2023/08/29 08:59:26;;;;;;;14.63;9.30;;;22.90;99.90;;;;;;7286369;19;20262;-81
2023/08/29 09:01:55;;;;;;;15.13;9.83;;;23.00;99.90;;;;;;7283244;19;20224;-81
2023/08/29 09:04:22;;;;;;;14.77;9.57;;;23.30;99.90;;;;;;7287130;19;20220;-80
2023/08/29 09:06:49;;;;;;;16.17;10.23;;;23.40;99.90;;;;;;7286771;19;20228;-80
2023/08/29 09:09:19;;;;;;;11.17;7.67;;;23.60;99.90;;;;;;7286367;19;20541;-80
2023/08/29 09:11:53;;;;;;;11.50;6.67;;;23.40;99.90;;;;;;7286151;19;20210;-81
2023/08/29 09:14:19;;;;;;;13.43;7.33;;;23.50;99.90;;;;;;7286359;19;20675;-81
2023/08/29 09:16:45;;;;;;;11.17;7.00;;;23.70;99.90;;;;;;7287227;19;20188;-80
2023/08/29 09:19:13;;;;;;;10.30;6.17;;;23.90;99.90;;;;;;7284178;19;20195;-80
2023/08/29 09:21:42;;;;;;;11.43;6.90;;;24.00;99.90;;;;;;7285756;19;20201;-80
2023/08/29 09:24:12;;;;;;;10.17;5.63;;;24.20;99.90;;;;;;7285676;19;20667;-80
2023/08/29 09:26:40;;;;;;;9.80;6.50;;;24.40;99.90;;;;;;7285189;19;20196;-81
2023/08/29 09:29:22;;;;;;;9.10;6.07;;;24.70;99.90;;;;;;7286599;19;20191;-82
2023/08/29 09:31:49;;;;;;;7.90;4.97;;;25.00;99.90;;;;;;7286553;19;20188;-82
2023/08/29 09:34:29;;;;;;;8.73;5.10;;;24.80;99.90;;;;;;7287123;19;20222;-82
2023/08/29 09:36:57;;;;;;;9.30;5.73;;;24.80;99.90;;;;;;7283476;19;20723;-81
2023/08/29 09:39:23;;;;;;;13.68;6.18;;;25.10;99.90;;;;;;7288995;19;20692;-81
2023/08/29 09:42:05;;;;;;;6.50;4.10;;;25.20;99.90;;;;;;7282503;19;20185;-82
2023/08/29 09:44:41;;;;;;;5.30;3.23;;;25.20;99.90;;;;;;7184142;19;2004476;-80
2023/08/29 09:47:09;;;;;;;7.83;4.37;;;25.30;99.90;;;;;;7286915;19;20252;-81
2023/08/29 09:49:48;;;;;;;7.82;4.88;;;25.40;99.90;;;;;;7284420;19;20181;-81
2023/08/29 09:52:14;;;;;;;10.55;5.00;;;25.40;99.90;;;;;;7284982;19;20547;-81
2023/08/29 09:54:46;;;;;;;8.77;4.82;;;25.30;99.90;;;;;;7282231;19;20189;-81
2023/08/29 09:57:14;;;;;;;7.70;4.13;;;25.20;99.90;;;;;;7284959;19;20515;-82
2023/08/29 09:59:42;;;;;;;7.37;4.37;;;25.00;99.90;;;;;;7286458;19;20196;-82
2023/08/29 10:02:13;;;;;;;8.53;4.83;;;25.00;99.90;;;;;;7285213;19;20221;-81
2023/08/29 10:04:45;;;;;;;8.50;5.97;;;25.10;99.90;;;;;;7284798;19;20189;-82
2023/08/29 10:07:24;;;;;;;7.27;4.93;;;25.10;99.90;;;;;;7286121;19;20271;-81
2023/08/29 10:09:51;;;;;;;9.00;5.23;;;25.00;99.90;;;;;;7283202;19;20192;-82
2023/08/29 10:12:17;;;;;;;8.97;5.13;;;25.30;99.90;;;;;;7285197;19;20232;-82
2023/08/29 10:14:44;;;;;;;9.15;5.47;;;25.70;99.90;;;;;;7284241;19;20193;-81
2023/08/29 10:17:12;;;;;;;10.85;5.63;;;26.50;99.90;;;;;;7283766;19;20193;-80
2023/08/29 10:19:39;;;;;;;8.48;5.95;;;27.40;99.90;;;;;;7284576;19;20256;-82
2023/08/29 10:22:07;;;;;;;7.10;4.22;;;27.90;99.90;;;;;;7284350;19;20177;-81
2023/08/29 10:24:36;;;;;;;7.35;4.55;;;28.00;99.90;;;;;;7286232;19;20340;-80
2023/08/29 10:27:03;;;;;;;7.35;5.00;;;28.70;99.90;;;;;;7285099;19;20200;-81
2023/08/29 10:29:32;;;;;;;6.95;4.88;;;29.30;99.90;;;;;;7285050;19;20181;-81
2023/08/29 10:32:00;;;;;;;6.93;4.65;;;30.70;99.90;;;;;;7286387;19;20277;-81
2023/08/29 10:34:29;;;;;;;6.43;4.50;;;31.00;99.90;;;;;;7308070;19;20201;-81
2023/08/29 10:36:56;;;;;;;7.07;4.43;;;31.60;99.90;;;;;;7286055;19;20184;-82
2023/08/29 10:39:27;;;;;;;6.25;4.35;;;31.50;99.90;;;;;;7291694;19;20303;-80
2023/08/29 10:41:54;;;;;;;8.02;5.47;;;30.90;99.90;;;;;;7289777;19;20185;-83
2023/08/29 10:44:36;;;;;;;6.90;4.97;;;30.20;99.90;;;;;;7283307;19;21086;-81
2023/08/29 10:47:26;;;;;;;6.78;4.18;;;29.70;99.90;;;;;;7181402;19;2004433;-82
2023/08/29 10:50:02;;;;;;;5.32;3.60;;;29.10;99.90;;;;;;7283826;19;20196;-82
2023/08/29 10:52:40;;;;;;;4.82;2.95;;;28.00;99.90;;;;;;7266107;19;20181;-81
2023/08/29 10:55:27;;;;;;;6.18;4.40;;;27.60;99.90;;;;;;7282768;19;20656;-80
2023/08/29 10:57:53;;;;;;;7.00;4.30;;;28.30;99.90;;;;;;7283266;19;20260;-82
2023/08/29 11:00:51;;;;;;;6.20;4.35;;;28.30;99.90;;;;;;7282393;19;20180;-81
2023/08/29 11:03:36;;;;;;;6.50;4.55;;;28.10;99.90;;;;;;7180939;19;2004833;-81
2023/08/29 11:06:02;;;;;;;8.50;4.80;;;27.60;99.90;;;;;;7181029;19;2004573;-82
2023/08/29 11:08:28;;;;;;;7.25;3.70;;;27.20;99.90;;;;;;7280665;19;20184;-81
2023/08/29 11:11:20;;;;;;;8.10;4.97;;;27.00;99.90;;;;;;7303282;19;20209;-81
2023/08/29 11:14:06;;;;;;;8.23;4.65;;;27.10;99.90;;;;;;7179336;19;2006204;-81
2023/08/29 11:16:36;;;;;;;8.73;5.35;;;27.20;99.90;;;;;;7179565;19;2006137;-81
2023/08/29 11:19:13;;;;;;;9.45;6.00;;;27.40;99.90;;;;;;7283715;19;20261;-82
2023/08/29 11:21:48;;;;;;;8.90;5.63;;;27.20;99.90;;;;;;7281831;19;20200;-81
2023/08/29 11:24:14;;;;;;;9.18;5.57;;;27.50;99.90;;;;;;7284083;19;20732;-80
2023/08/29 11:26:41;;;;;;;8.32;4.78;;;27.30;99.90;;;;;;7281351;19;20193;-80
2023/08/29 11:29:07;;;;;;;6.65;4.22;;;28.10;99.90;;;;;;7281721;19;20204;-81
2023/08/29 11:31:42;;;;;;;7.50;4.28;;;29.30;99.90;;;;;;7281935;19;20189;-81
2023/08/29 11:34:26;;;;;;;6.15;3.58;;;29.90;99.90;;;;;;7281407;19;20668;-82
2023/08/29 11:36:52;;;;;;;5.53;3.10;;;31.80;99.80;;;;;;7281825;19;20206;-82
2023/08/29 11:39:21;;;;;;;7.10;3.05;;;33.30;95.70;;;;;;7283208;19;20201;-82
2023/08/29 11:41:47;;;;;;;5.80;3.33;;;34.20;91.60;;;;;;7281761;19;20216;-81
2023/08/29 11:44:14;;;;;;;6.97;3.95;;;35.00;90.60;;;;;;7290089;19;20199;-80
2023/08/29 11:46:40;;;;;;;5.63;2.90;;;35.10;85.40;;;;;;7288040;19;20189;-79
2023/08/29 11:49:16;;;;;;;6.20;4.50;;;34.90;84.80;;;;;;7288750;19;20199;-81
2023/08/29 11:51:43;;;;;;;8.05;4.22;;;34.60;83.60;;;;;;7288533;19;20189;-81
2023/08/29 11:54:47;;;;;;;8.18;3.58;;;33.60;83.40;;;;;;7287926;19;20193;-81
2023/08/29 11:57:14;;;;;;;5.60;3.75;;;32.20;89.00;;;;;;7185923;19;2004792;-80
2023/08/29 11:59:44;;;;;;;7.30;3.58;;;31.20;90.60;;;;;;7287699;19;20201;-80
2023/08/29 12:02:13;;;;;;;5.03;2.92;;;30.30;92.00;;;;;;7285005;19;20185;-79
2023/08/29 12:04:43;;;;;;;6.07;3.28;;;29.70;90.40;;;;;;7287679;19;20201;-79
2023/08/29 12:07:16;;;;;;;8.70;5.47;;;29.10;90.20;;;;;;7286015;19;20273;-79
2023/08/29 12:09:43;;;;;;;6.85;4.43;;;28.60;93.10;;;;;;7286185;19;20223;-80
2023/08/29 12:12:29;;;;;;;7.82;3.88;;;28.10;94.40;;;;;;7286428;19;20260;-80
2023/08/29 12:14:55;;;;;;;4.85;3.22;;;27.70;95.00;;;;;;7287347;19;20223;-79
2023/08/29 12:17:20;;;;;;;5.22;3.20;;;28.00;95.80;;;;;;7287853;19;20192;-80
2023/08/29 12:19:47;;;;;;;10.35;3.75;;;29.00;96.20;;;;;;7287977;19;20684;-80
2023/08/29 12:22:19;;;;;;;7.72;3.80;;;29.30;95.20;;;;;;7286086;19;20204;-80
2023/08/29 12:24:54;;;;;;;5.30;3.90;;;29.50;93.90;;;;;;7286826;19;20252;-81
2023/08/29 12:27:20;;;;;;;6.72;3.33;;;28.80;94.50;;;;;;7287347;19;20204;-79
2023/08/29 12:29:46;;;;;;;7.18;3.22;;;28.60;95.10;;;;;;7285701;19;20282;-78
2023/08/29 12:32:13;;;;;;;8.25;2.90;;;28.80;96.40;;;;;;7285268;19;20212;-79
2023/08/29 12:34:41;;;;;;;6.20;2.90;;;28.60;96.10;;;;;;7285712;19;20281;-79
2023/08/29 12:37:06;;;;;;;5.90;2.92;;;28.30;96.60;;;;;;7287520;19;20184;-79